Time;durP1;ratioP1;P1;durP2;ratioP2;P2;SDS_P1;SDS_P2;PMS_P1;PMS_P2;Temp;Humidity;BMP_temperature;BMP_pressure;BME280_temperature;BME280_humidity;BME280_pressure;Samples;Min_cycle;Max_cycle;Signal;HPM_P1;HPM_P2
2021/07/15 00:00:12;;;;;;;;;;;;;;;22.78;60.81;101756.78;2210325;39;113871;-56
2021/07/15 00:01:44;;;;;;;;;;;;;;;22.78;60.46;101756.78;2211232;39;114045;-57
2021/07/15 00:03:17;;;;;;;;;;;;;;;22.80;60.59;101765.78;2204139;39;114850;-56
2021/07/15 00:04:49;;;;;;;;;;;;;;;22.80;60.49;101768.59;2207481;39;113882;-56
2021/07/15 00:06:22;;;;;;;;;;;;;;;22.81;60.71;101764.59;2209056;39;113817;-56
2021/07/15 00:07:54;;;;;;;;;;;;;;;22.80;60.74;101768.59;2203709;39;114189;-56
2021/07/15 00:09:26;;;;;;;;;;;;;;;22.81;60.95;101764.59;2213631;39;114003;-56
2021/07/15 00:11:01;;;;;;;;;;;;;;;22.80;60.81;101766.63;2210709;39;114819;-56
2021/07/15 00:12:33;;;;;;;;;;;;;;;22.80;60.81;101763.78;2210406;39;113815;-56
2021/07/15 00:14:06;;;;;;;;;;;;;;;22.78;61.05;101774.50;2210447;39;114216;-57
2021/07/15 00:15:40;;;;;;;;;;;;;;;22.83;61.18;101768.81;2206538;39;115011;-57
2021/07/15 00:17:12;;;;;;;;;;;;;;;22.80;60.88;101775.06;2206447;39;115302;-56
2021/07/15 00:18:45;;;;;;;;;;;;;;;22.79;61.33;101781.00;2211130;39;114855;-56
2021/07/15 00:20:17;;;;;;;;;;;;;;;22.80;61.38;101777.88;2209043;39;113894;-56
2021/07/15 00:21:51;;;;;;;;;;;;;;;22.82;61.24;101778.41;2207994;39;114826;-56
2021/07/15 00:23:23;;;;;;;;;;;;;;;22.84;61.35;101775.28;2216280;39;115467;-56
2021/07/15 00:24:59;;;;;;;;;;;;;;;22.82;61.44;101772.75;2211292;39;114805;-56
2021/07/15 00:26:31;;;;;;;;;;;;;;;22.82;61.51;101772.75;2204505;39;114778;-56
2021/07/15 00:28:04;;;;;;;;;;;;;;;22.80;61.24;101771.41;2206766;39;114945;-56
2021/07/15 00:29:36;;;;;;;;;;;;;;;22.83;61.28;101771.63;2210677;39;114784;-56
2021/07/15 00:31:09;;;;;;;;;;;;;;;22.80;61.19;101774.22;2216830;39;114899;-57
2021/07/15 00:32:41;;;;;;;;;;;;;;;22.82;61.19;101771.91;2212535;39;115986;-56
2021/07/15 00:34:13;;;;;;;;;;;;;;;22.83;61.69;101773.59;2212176;39;115585;-56
2021/07/15 00:35:45;;;;;;;;;;;;;;;22.80;61.27;101772.25;2210834;39;115456;-56
2021/07/15 00:37:17;;;;;;;;;;;;;;;22.81;61.22;101778.69;2211235;39;115602;-56
2021/07/15 00:38:49;;;;;;;;;;;;;;;22.83;61.78;101782.91;2211616;39;115430;-56
2021/07/15 00:40:21;;;;;;;;;;;;;;;22.81;61.69;101788.00;2211193;39;115908;-56
2021/07/15 00:41:52;;;;;;;;;;;;;;;22.80;61.62;101780.69;2211724;39;115538;-56
2021/07/15 00:43:25;;;;;;;;;;;;;;;22.80;61.06;101771.41;2210907;39;114639;-57
2021/07/15 00:44:57;;;;;;;;;;;;;;;22.83;61.78;101776.41;2207203;39;115596;-56
2021/07/15 00:46:29;;;;;;;;;;;;;;;;;;2210885;39;116015;-56
2021/07/15 00:48:01;;;;;;;;;;;;;;;22.79;61.40;101776.19;2204593;39;146019;-56
2021/07/15 00:49:33;;;;;;;;;;;;;;;22.78;61.65;101777.34;2208948;39;115609;-56
2021/07/15 00:51:06;;;;;;;;;;;;;;;22.79;61.72;101781.00;2207775;39;115608;-56
2021/07/15 00:52:39;;;;;;;;;;;;;;;22.79;61.55;101786.63;2211348;39;115423;-56
2021/07/15 00:54:11;;;;;;;;;;;;;;;22.77;61.52;101780.44;2207058;39;115494;-56
2021/07/15 00:55:44;;;;;;;;;;;;;;;22.77;61.48;101775.66;2209128;39;113880;-56
2021/07/15 00:57:16;;;;;;;;;;;;;;;22.79;61.14;101775.34;2211417;39;113698;-56
2021/07/15 00:58:48;;;;;;;;;;;;;;;22.78;61.70;101785.78;2210414;39;113871;-56
2021/07/15 01:00:21;;;;;;;;;;;;;;;22.78;61.64;101784.94;2211325;39;113618;-56
2021/07/15 01:01:53;;;;;;;;;;;;;;;22.75;61.21;101786.41;2212318;39;114371;-56
2021/07/15 01:03:26;;;;;;;;;;;;;;;22.75;61.24;101779.94;2212896;39;113751;-56
2021/07/15 01:05:05;;;;;;;;;;;;;;;22.75;61.20;101783.59;2211648;39;113723;-56
2021/07/15 01:06:37;;;;;;;;;;;;;;;22.74;61.34;101781.91;2210211;39;113939;-56
2021/07/15 01:08:09;;;;;;;;;;;;;;;22.77;61.29;101786.09;2210251;39;113960;-56
2021/07/15 01:09:41;;;;;;;;;;;;;;;22.77;61.46;101792.56;2210775;39;113697;-56
2021/07/15 01:11:19;;;;;;;;;;;;;;;22.76;61.28;101792.88;2205278;39;113622;-56
2021/07/15 01:12:58;;;;;;;;;;;;;;;22.77;61.16;101794.53;2211804;39;113910;-57
2021/07/15 01:14:34;;;;;;;;;;;;;;;22.76;61.19;101793.69;2209768;39;114116;-57
2021/07/15 01:16:09;;;;;;;;;;;;;;;22.77;61.45;101795.38;2206718;39;113845;-56
2021/07/15 01:17:44;;;;;;;;;;;;;;;22.78;61.34;101799.03;2205318;39;114535;-56
2021/07/15 01:19:17;;;;;;;;;;;;;;;22.76;60.84;101793.69;2210892;39;115161;-56
2021/07/15 01:20:52;;;;;;;;;;;;;;;22.74;60.80;101795.16;2210945;39;114868;-56
2021/07/15 01:22:33;;;;;;;;;;;;;;;22.76;61.41;101792.88;2211939;39;113752;-56
2021/07/15 01:24:08;;;;;;;;;;;;;;;22.76;61.24;101790.88;2210449;39;114972;-56
2021/07/15 01:25:51;;;;;;;;;;;;;;;22.73;60.80;101780.22;2210763;39;115026;-56
2021/07/15 01:27:26;;;;;;;;;;;;;;;22.78;61.57;101787.75;2211186;39;115250;-56
2021/07/15 01:28:58;;;;;;;;;;;;;;;22.77;61.23;101786.09;2210834;39;115419;-56
2021/07/15 01:30:33;;;;;;;;;;;;;;;22.77;61.83;101778.47;2211562;39;114797;-56
2021/07/15 01:32:06;;;;;;;;;;;;;;;22.76;61.22;101788.06;2211195;39;115215;-56
2021/07/15 01:33:40;;;;;;;;;;;;;;;22.74;60.65;101783.88;2209554;39;115977;-56
2021/07/15 01:35:13;;;;;;;;;;;;;;;22.70;60.61;101794.09;2206794;39;113856;-56
2021/07/15 01:36:47;;;;;;;;;;;;;;;22.63;57.97;101795.25;2206926;39;115274;-55
2021/07/15 01:38:21;;;;;;;;;;;;;;;22.56;56.37;101789.16;2211142;39;114840;-56
2021/07/15 01:39:54;;;;;;;;;;;;;;;22.58;55.24;101800.09;2209697;39;115578;-56
2021/07/15 01:41:28;;;;;;;;;;;;;;;22.57;55.14;101806.91;2211606;39;115842;-56
2021/07/15 01:43:02;;;;;;;;;;;;;;;22.57;54.52;101801.28;2210497;39;115579;-55
2021/07/15 01:44:34;;;;;;;;;;;;;;;22.49;54.98;101799.94;2211365;39;115505;-57
2021/07/15 01:46:07;;;;;;;;;;;;;;;22.48;56.63;101803.91;2210035;39;115711;-56
2021/07/15 01:47:39;;;;;;;;;;;;;;;22.50;57.01;101798.81;2210158;39;115872;-56
2021/07/15 01:49:12;;;;;;;;;;;;;;;22.52;57.57;101796.53;2212763;39;115672;-56
2021/07/15 01:50:44;;;;;;;;;;;;;;;22.53;57.79;101797.38;2202497;39;116208;-56
2021/07/15 01:52:16;;;;;;;;;;;;;;;22.52;57.77;101796.53;2209465;39;115623;-56
2021/07/15 01:53:49;;;;;;;;;;;;;;;22.54;57.64;101796.22;2209708;39;115529;-56
2021/07/15 01:55:22;;;;;;;;;;;;;;;22.52;57.96;101795.69;2209923;39;115925;-56
2021/07/15 01:56:54;;;;;;;;;;;;;;;22.52;57.73;101799.34;2207678;39;114924;-56
2021/07/15 01:58:28;;;;;;;;;;;;;;;22.52;57.73;101807.81;2210300;39;115555;-56
2021/07/15 02:00:01;;;;;;;;;;;;;;;22.52;57.76;101810.63;2213604;39;114760;-56
2021/07/15 02:01:34;;;;;;;;;;;;;;;22.53;57.89;101812.28;2211661;39;113755;-56
2021/07/15 02:03:06;;;;;;;;;;;;;;;22.55;58.19;101824.09;2208274;39;113695;-56
2021/07/15 02:04:39;;;;;;;;;;;;;;;22.54;58.22;101813.97;2210608;39;114956;-56
2021/07/15 02:06:12;;;;;;;;;;;;;;;22.53;58.19;101817.91;2208440;39;113904;-56
2021/07/15 02:07:45;;;;;;;;;;;;;;;22.54;58.30;101816.78;2211267;39;113880;-56
2021/07/15 02:09:18;;;;;;;;;;;;;;;22.58;58.39;101817.00;2210271;39;113780;-56
2021/07/15 02:10:52;;;;;;;;;;;;;;;22.53;58.76;101820.72;2210486;39;114068;-56
2021/07/15 02:12:24;;;;;;;;;;;;;;;22.55;58.72;101812.81;2211341;39;113785;-56
2021/07/15 02:13:56;;;;;;;;;;;;;;;22.54;58.72;101825.22;2211529;39;113635;-56
2021/07/15 02:15:29;;;;;;;;;;;;;;;22.54;58.71;101828.03;2215670;39;113752;-56
2021/07/15 02:17:01;;;;;;;;;;;;;;;22.53;58.61;101819.91;2209558;39;113992;-56
2021/07/15 02:18:34;;;;;;;;;;;;;;;22.57;58.90;101821.00;2214947;39;113749;-56
2021/07/15 02:20:09;;;;;;;;;;;;;;;22.54;58.98;101805.50;2208109;39;113740;-56
2021/07/15 02:21:42;;;;;;;;;;;;;;;22.53;58.71;101809.47;2211418;39;113799;-56
2021/07/15 02:23:14;;;;;;;;;;;;;;;22.53;59.10;101809.47;2212837;39;114328;-56
2021/07/15 02:24:48;;;;;;;;;;;;;;;22.54;58.93;101815.94;2208401;39;113966;-56
2021/07/15 02:26:20;;;;;;;;;;;;;;;22.54;59.03;101813.13;2210121;39;114874;-56
2021/07/15 02:27:52;;;;;;;;;;;;;;;22.55;59.21;101810.00;2211329;39;115710;-56
2021/07/15 02:29:25;;;;;;;;;;;;;;;22.53;59.01;101803.81;2210738;39;114815;-56
2021/07/15 02:31:00;;;;;;;;;;;;;;;22.54;58.93;101810.31;2211080;39;113922;-56
2021/07/15 02:32:33;;;;;;;;;;;;;;;22.54;59.04;101810.31;2208659;39;114088;-56
2021/07/15 02:34:08;;;;;;;;;;;;;;;22.54;58.95;101808.31;2210549;39;114952;-57
2021/07/15 02:35:42;;;;;;;;;;;;;;;22.53;59.21;101803.00;2217037;39;115411;-56
2021/07/15 02:37:14;;;;;;;;;;;;;;;22.51;59.11;101806.13;2212749;39;114786;-56
2021/07/15 02:38:48;;;;;;;;;;;;;;;22.52;59.20;101806.97;2210844;39;114966;-56
2021/07/15 02:40:20;;;;;;;;;;;;;;;22.54;59.20;101813.97;2209736;39;115670;-56
2021/07/15 02:41:52;;;;;;;;;;;;;;;22.55;59.02;101810.00;2208111;39;115162;-56
2021/07/15 02:43:25;;;;;;;;;;;;;;;22.55;59.14;101810.00;2209554;39;114128;-56
2021/07/15 02:44:57;;;;;;;;;;;;;;;22.55;59.12;101810.00;2211353;39;115000;-56
2021/07/15 02:46:29;;;;;;;;;;;;;;;22.55;59.31;101812.81;2210157;39;115798;-56
2021/07/15 02:48:01;;;;;;;;;;;;;;;22.56;59.31;101816.47;2201871;39;115763;-56
2021/07/15 02:49:33;;;;;;;;;;;;;;;22.55;59.28;101810.00;2206245;39;115481;-57
2021/07/15 02:51:05;;;;;;;;;;;;;;;22.54;59.10;101807.47;2214251;39;115602;-56
2021/07/15 02:52:38;;;;;;;;;;;;;;;22.54;59.04;101807.47;2211186;39;115600;-56
2021/07/15 02:54:10;;;;;;;;;;;;;;;22.54;59.06;101810.31;2209206;39;115904;-61
2021/07/15 02:55:46;;;;;;;;;;;;;;;22.52;58.86;101815.41;2209035;39;115826;-56
2021/07/15 02:57:21;;;;;;;;;;;;;;;22.53;58.91;101805.84;2211802;39;114535;-56
2021/07/15 02:58:54;;;;;;;;;;;;;;;22.51;58.78;101811.75;2212845;39;115472;-56
2021/07/15 03:00:26;;;;;;;;;;;;;;;22.52;58.65;101816.25;2211042;39;115491;-56
2021/07/15 03:02:01;;;;;;;;;;;;;;;22.51;58.80;101819.38;2208192;39;115629;-56
2021/07/15 03:03:36;;;;;;;;;;;;;;;22.51;58.72;101817.38;2211320;39;115775;-56
2021/07/15 03:05:11;;;;;;;;;;;;;;;22.48;58.83;101818.00;2210851;39;115959;-56
2021/07/15 03:06:44;;;;;;;;;;;;;;;22.50;58.43;101823.31;2210403;39;114535;-56
2021/07/15 03:08:19;;;;;;;;;;;;;;;22.49;58.63;101824.44;2211524;39;113971;-56
2021/07/15 03:09:52;;;;;;;;;;;;;;;22.49;58.43;101814.03;2210085;39;114727;-56
2021/07/15 03:11:29;;;;;;;;;;;;;;;22.47;58.55;101815.47;2210954;39;114004;-57
2021/07/15 03:13:03;;;;;;;;;;;;;;;22.49;58.54;101816.00;2209599;39;113674;-56
2021/07/15 03:14:38;;;;;;;;;;;;;;;22.49;58.54;101819.66;2209182;39;113552;-56
2021/07/15 03:16:11;;;;;;;;;;;;;;;22.50;58.74;101824.16;2210346;39;113767;-57
2021/07/15 03:17:44;;;;;;;;;;;;;;;22.48;58.73;101826.44;2210334;39;114170;-56
2021/07/15 03:19:17;;;;;;;;;;;;;;;22.49;58.59;101830.91;2209614;39;113751;-56
2021/07/15 03:20:49;;;;;;;;;;;;;;;22.51;58.71;101827.81;2210659;39;113889;-56
2021/07/15 03:22:24;;;;;;;;;;;;;;;22.50;58.73;101831.75;2210608;39;113837;-57
2021/07/15 03:23:56;;;;;;;;;;;;;;;22.51;58.89;101837.09;2209186;39;114000;-56
2021/07/15 03:25:28;;;;;;;;;;;;;;;22.49;58.63;101830.06;2210796;39;113919;-56
2021/07/15 03:27:04;;;;;;;;;;;;;;;22.50;58.44;101831.75;2209899;39;114211;-56
2021/07/15 03:28:37;;;;;;;;;;;;;;;22.49;58.67;101830.91;2210773;39;114038;-56
2021/07/15 03:30:10;;;;;;;;;;;;;;;22.49;58.89;101835.72;2210763;39;115365;-55
2021/07/15 03:31:42;;;;;;;;;;;;;;;22.49;58.91;101839.38;2211041;39;114739;-56
2021/07/15 03:33:15;;;;;;;;;;;;;;;22.47;58.59;101838.84;2211077;39;115414;-56
2021/07/15 03:34:48;;;;;;;;;;;;;;;22.50;58.66;101837.41;2210669;39;114761;-56
2021/07/15 03:36:20;;;;;;;;;;;;;;;22.48;58.90;101829.25;2207219;39;114669;-55
2021/07/15 03:37:52;;;;;;;;;;;;;;;22.49;58.73;101841.34;2207133;39;114896;-57
2021/07/15 03:39:25;;;;;;;;;;;;;;;22.47;58.90;101833.22;2211132;39;114679;-56
2021/07/15 03:40:59;;;;;;;;;;;;;;;22.49;59.12;101833.72;2210464;39;113921;-56
2021/07/15 03:42:31;;;;;;;;;;;;;;;22.47;58.86;101836.03;2209845;39;114462;-56
2021/07/15 03:44:03;;;;;;;;;;;;;;;22.46;59.06;101836.31;2213816;39;115315;-56
2021/07/15 03:45:36;;;;;;;;;;;;;;;22.47;59.19;101835.19;2209907;39;114930;-56
2021/07/15 03:47:09;;;;;;;;;;;;;;;22.46;58.99;101828.72;2213987;39;114830;-56
2021/07/15 03:48:42;;;;;;;;;;;;;;;22.48;59.14;101837.72;2206987;39;113866;-56
2021/07/15 03:50:18;;;;;;;;;;;;;;;22.46;59.10;101836.31;2209746;39;113901;-56
2021/07/15 03:51:50;;;;;;;;;;;;;;;22.46;59.14;101839.13;2205820;39;115630;-56
2021/07/15 03:53:23;;;;;;;;;;;;;;;22.46;59.37;101837.16;2211426;39;116084;-56
2021/07/15 03:54:56;;;;;;;;;;;;;;;22.46;59.15;101837.16;2204129;39;115506;-56
2021/07/15 03:56:29;;;;;;;;;;;;;;;22.45;59.24;101829.84;2203856;39;115613;-56
2021/07/15 03:58:03;;;;;;;;;;;;;;;22.48;59.28;101831.25;2211386;39;115558;-56
2021/07/15 03:59:38;;;;;;;;;;;;;;;22.46;59.23;101836.31;2211051;39;115471;-56
2021/07/15 04:01:12;;;;;;;;;;;;;;;22.46;59.10;101839.13;2203414;39;115464;-56
2021/07/15 04:02:45;;;;;;;;;;;;;;;22.44;59.45;101845.06;2210361;39;115938;-56
2021/07/15 04:04:17;;;;;;;;;;;;;;;22.45;59.31;101843.09;2213442;39;115514;-56
2021/07/15 04:05:50;;;;;;;;;;;;;;;22.46;59.16;101845.59;2210651;39;115497;-56
2021/07/15 04:07:25;;;;;;;;;;;;;;;22.47;59.51;101847.28;2204190;39;116184;-56
2021/07/15 04:08:59;;;;;;;;;;;;;;;22.45;59.60;101843.94;2208474;39;115586;-56
2021/07/15 04:10:33;;;;;;;;;;;;;;;22.44;59.37;101847.88;2210694;39;115556;-56
2021/07/15 04:12:06;;;;;;;;;;;;;;;22.44;59.45;101838.63;2211507;39;115993;-56
2021/07/15 04:13:40;;;;;;;;;;;;;;;22.43;59.53;101837.78;2213849;39;115563;-56
2021/07/15 04:15:16;;;;;;;;;;;;;;;22.45;59.39;101843.09;2210870;39;113979;-56
2021/07/15 04:16:51;;;;;;;;;;;;;;;22.45;59.39;101840.25;2208622;39;113835;-56
2021/07/15 04:18:27;;;;;;;;;;;;;;;22.45;59.23;101834.63;2211498;39;114823;-56
2021/07/15 04:20:00;;;;;;;;;;;;;;;22.44;59.61;101833.78;2207108;39;113583;-56
2021/07/15 04:21:34;;;;;;;;;;;;;;;22.45;59.44;101838.28;2198085;39;113829;-56
2021/07/15 04:23:06;;;;;;;;;;;;;;;22.46;59.32;101841.94;2199345;39;113891;-56
2021/07/15 04:24:39;;;;;;;;;;;;;;;22.44;59.57;101844.25;2204248;39;113676;-56
2021/07/15 04:26:13;;;;;;;;;;;;;;;22.43;59.71;101837.78;2200474;39;113726;-56
2021/07/15 04:27:47;;;;;;;;;;;;;;;22.44;59.46;101836.59;2198983;39;113801;-55
2021/07/15 04:29:20;;;;;;;;;;;;;;;22.44;59.39;101838.63;2199604;39;113817;-56
2021/07/15 04:30:55;;;;;;;;;;;;;;;22.45;59.14;101837.44;2197761;39;114059;-56
2021/07/15 04:32:29;;;;;;;;;;;;;;;22.44;59.23;101842.25;2199116;39;113657;-56
2021/07/15 04:34:01;;;;;;;;;;;;;;;22.43;59.26;101854.66;2199581;39;114229;-56
2021/07/15 04:35:34;;;;;;;;;;;;;;;22.45;59.36;101848.72;2197480;39;113873;-56
2021/07/15 04:37:07;;;;;;;;;;;;;;;22.43;59.46;101849.03;2197752;39;115175;-56
2021/07/15 04:38:41;;;;;;;;;;;;;;;22.44;59.38;101850.69;2198808;39;115379;-56
2021/07/15 04:40:16;;;;;;;;;;;;;;;22.43;59.05;101851.84;2198039;39;115363;-56
2021/07/15 04:41:49;;;;;;;;;;;;;;;22.43;59.17;101859.47;2199092;39;115143;-56
2021/07/15 04:43:22;;;;;;;;;;;;;;;22.42;59.29;101857.78;2198562;39;115241;-56
2021/07/15 04:44:54;;;;;;;;;;;;;;;22.42;59.29;101863.41;2199177;39;114825;-56
2021/07/15 04:46:27;;;;;;;;;;;;;;;22.44;59.32;101863.97;2197547;39;114830;-56
2021/07/15 04:47:59;;;;;;;;;;;;;;;22.42;59.20;101854.97;2198350;39;115273;-56
2021/07/15 04:49:31;;;;;;;;;;;;;;;22.41;59.36;101856.09;2204540;39;114753;-56
2021/07/15 04:51:04;;;;;;;;;;;;;;;22.42;59.46;101852.13;2199864;39;114751;-56
2021/07/15 04:52:37;;;;;;;;;;;;;;;22.41;59.02;101853.28;2199728;39;114879;-56
2021/07/15 04:54:12;;;;;;;;;;;;;;;22.43;59.12;101851.00;2199076;39;114777;-56
2021/07/15 04:55:45;;;;;;;;;;;;;;;22.41;59.30;101854.13;2198334;39;114825;-56
2021/07/15 04:57:17;;;;;;;;;;;;;;;22.41;59.06;101854.13;2200924;39;114912;-56
2021/07/15 04:58:51;;;;;;;;;;;;;;;22.43;59.27;101846.22;2198259;39;115686;-57
2021/07/15 05:00:25;;;;;;;;;;;;;;;22.44;59.11;101850.69;2197643;39;115431;-56
2021/07/15 05:01:57;;;;;;;;;;;;;;;22.43;59.43;101845.38;2204008;39;115498;-56
2021/07/15 05:03:32;;;;;;;;;;;;;;;22.43;59.37;101854.66;2197455;39;115030;-56
2021/07/15 05:05:06;;;;;;;;;;;;;;;22.40;59.29;101841.16;2202554;39;115477;-56
2021/07/15 05:06:38;;;;;;;;;;;;;;;22.40;59.14;101849.63;2200274;39;115688;-56
2021/07/15 05:08:10;;;;;;;;;;;;;;;22.40;59.36;101845.94;2198902;39;116121;-56
2021/07/15 05:09:42;;;;;;;;;;;;;;;22.40;59.30;101855.25;2199385;39;115477;-56
2021/07/15 05:11:14;;;;;;;;;;;;;;;22.43;59.17;101851.00;2198402;39;115701;-56
2021/07/15 05:12:46;;;;;;;;;;;;;;;22.40;59.57;101858.06;2203285;39;115890;-56
2021/07/15 05:14:18;;;;;;;;;;;;;;;22.40;59.36;101858.06;2198365;39;115902;-56
2021/07/15 05:15:50;;;;;;;;;;;;;;;22.40;59.20;101849.63;2199335;39;115477;-56
2021/07/15 05:17:22;;;;;;;;;;;;;;;22.40;59.25;101855.25;2198743;39;115568;-56
2021/07/15 05:18:54;;;;;;;;;;;;;;;22.39;58.99;101847.13;2201086;39;115587;-56
2021/07/15 05:20:26;;;;;;;;;;;;;;;22.40;59.13;101848.78;2202359;39;115260;-56
2021/07/15 05:21:58;;;;;;;;;;;;;;;22.39;59.35;101849.94;2210395;39;113779;-56
2021/07/15 05:23:30;;;;;;;;;;;;;;;22.41;59.26;101856.09;2211358;39;113661;-56
2021/07/15 05:25:02;;;;;;;;;;;;;;;22.40;59.34;101852.44;2212859;39;114009;-56
2021/07/15 05:26:34;;;;;;;;;;;;;;;22.41;59.13;101853.28;2205096;39;113956;-56
2021/07/15 05:28:06;;;;;;;;;;;;;;;22.40;59.34;101845.94;2209275;39;114115;-56
2021/07/15 05:29:38;;;;;;;;;;;;;;;22.39;59.08;101847.97;2210865;39;114124;-56
2021/07/15 05:31:10;;;;;;;;;;;;;;;22.40;59.33;101843.13;2208528;39;113812;-56
2021/07/15 05:32:43;;;;;;;;;;;;;;;22.39;59.14;101844.31;2206037;39;113770;-56
2021/07/15 05:34:17;;;;;;;;;;;;;;;22.39;59.28;101839.50;2210576;39;113769;-56
2021/07/15 05:35:49;;;;;;;;;;;;;;;22.39;59.13;101847.97;2211276;39;113829;-56
2021/07/15 05:37:21;;;;;;;;;;;;;;;22.38;59.17;101843.47;2210929;39;113780;-56
2021/07/15 05:38:53;;;;;;;;;;;;;;;22.38;59.35;101851.06;2211521;39;113571;-56
2021/07/15 05:40:25;;;;;;;;;;;;;;;22.41;59.10;101851.31;2211173;39;114517;-56
2021/07/15 05:41:57;;;;;;;;;;;;;;;22.41;58.95;101859.75;2214068;39;113561;-56
2021/07/15 05:43:29;;;;;;;;;;;;;;;22.40;59.13;101857.22;2210138;39;113801;-56
2021/07/15 05:45:01;;;;;;;;;;;;;;;22.39;59.15;101859.22;2211096;39;115180;-56
2021/07/15 05:46:33;;;;;;;;;;;;;;;22.40;59.17;101857.22;2210448;39;115116;-55
2021/07/15 05:48:05;;;;;;;;;;;;;;;22.38;58.90;101863.16;2207946;39;115011;-56
2021/07/15 05:49:37;;;;;;;;;;;;;;;22.38;59.11;101863.16;2210121;39;115212;-56
2021/07/15 05:51:09;;;;;;;;;;;;;;;22.37;58.83;101869.09;2202535;39;114927;-56
2021/07/15 05:52:41;;;;;;;;;;;;;;;22.37;58.71;101881.19;2210639;39;114632;-56
2021/07/15 05:54:15;;;;;;;;;;;;;;;22.39;59.03;101881.75;2210889;39;114666;-56
2021/07/15 05:55:47;;;;;;;;;;;;;;;22.36;59.14;101885.16;2210666;39;115078;-56
2021/07/15 05:57:19;;;;;;;;;;;;;;;22.38;59.01;101891.34;2210656;39;114778;-56
2021/07/15 05:58:51;;;;;;;;;;;;;;;22.37;59.12;101895.28;2210102;39;114952;-56
2021/07/15 06:00:23;;;;;;;;;;;;;;;22.36;59.20;101899.22;2210681;39;114795;-56
2021/07/15 06:01:55;;;;;;;;;;;;;;;22.35;59.03;101896.72;2211332;39;115833;-56
2021/07/15 06:03:28;;;;;;;;;;;;;;;22.39;58.95;101895.00;2213589;39;115268;-56
2021/07/15 06:05:00;;;;;;;;;;;;;;;22.37;59.02;101891.63;2211329;39;115435;-56
2021/07/15 06:06:33;;;;;;;;;;;;;;;22.36;59.07;101890.78;2209834;39;116012;-56
2021/07/15 06:08:05;;;;;;;;;;;;;;;22.36;59.01;101887.13;2211544;39;115464;-56
2021/07/15 06:09:37;;;;;;;;;;;;;;;22.38;59.12;101888.50;2206665;39;115689;-55
2021/07/15 06:11:09;;;;;;;;;;;;;;;22.36;59.03;101887.97;2211290;39;115474;-56
2021/07/15 06:12:41;;;;;;;;;;;;;;;22.36;59.01;101887.97;2208091;39;115537;-56
2021/07/15 06:14:13;;;;;;;;;;;;;;;22.37;59.31;101892.47;2204347;39;115862;-56
2021/07/15 06:15:45;;;;;;;;;;;;;;;22.42;59.05;101883.13;2204942;39;115868;-56
2021/07/15 06:17:17;;;;;;;;;;;;;;;22.39;58.85;101892.19;2210795;39;115067;-56
2021/07/15 06:18:49;;;;;;;;;;;;;;;22.37;59.13;101886.81;2210145;39;114582;-56
2021/07/15 06:20:21;;;;;;;;;;;;;;;22.38;59.34;101887.66;2207509;39;114510;-56
2021/07/15 06:21:52;;;;;;;;;;;;;;;22.39;59.14;101893.00;2205965;39;115958;-56
2021/07/15 06:23:25;;;;;;;;;;;;;;;22.38;59.27;101888.50;2206041;39;115473;-56
2021/07/15 06:24:57;;;;;;;;;;;;;;;22.39;59.16;101889.34;2202073;39;115417;-56
2021/07/15 06:26:29;;;;;;;;;;;;;;;22.39;58.89;101889.34;2204101;39;113841;-56
2021/07/15 06:28:01;;;;;;;;;;;;;;;22.38;59.24;101896.13;2209660;39;113738;-56
2021/07/15 06:29:32;;;;;;;;;;;;;;;22.37;59.39;101888.81;2208862;39;113777;-56
2021/07/15 06:31:04;;;;;;;;;;;;;;;22.39;59.39;101890.19;2207900;39;113840;-55
2021/07/15 06:32:37;;;;;;;;;;;;;;;22.39;59.16;101895.00;2211270;39;113954;-56
2021/07/15 06:34:09;;;;;;;;;;;;;;;22.37;59.21;101898.09;2211228;39;113736;-55
2021/07/15 06:35:41;;;;;;;;;;;;;;;22.39;59.18;101892.19;2207049;39;113708;-56
2021/07/15 06:37:14;;;;;;;;;;;;;;;22.38;58.91;101894.16;2209642;39;113807;-56
2021/07/15 06:38:47;;;;;;;;;;;;;;;22.39;59.38;101900.63;2210943;39;113896;-57
2021/07/15 06:40:19;;;;;;;;;;;;;;;22.36;59.18;101901.19;2214770;39;113918;-56
2021/07/15 06:41:52;;;;;;;;;;;;;;;22.37;59.52;101894.44;2213125;39;113756;-56
2021/07/15 06:43:24;;;;;;;;;;;;;;;22.38;59.27;101894.16;2208099;39;113788;-56
2021/07/15 06:44:56;;;;;;;;;;;;;;;22.37;59.29;101900.91;2211083;39;113938;-56
2021/07/15 06:46:28;;;;;;;;;;;;;;;22.38;59.43;101898.94;2213833;39;113683;-56
2021/07/15 06:48:00;;;;;;;;;;;;;;;22.41;59.37;101901.16;2209567;39;114877;-56
2021/07/15 06:49:32;;;;;;;;;;;;;;;22.36;60.01;101910.47;2208092;39;115412;-56
2021/07/15 06:51:04;;;;;;;;;;;;;;;22.37;59.96;101909.34;2208952;39;114854;-56
2021/07/15 06:52:36;;;;;;;;;;;;;;;22.35;59.61;101905.16;2207937;39;114805;-56
2021/07/15 06:54:08;;;;;;;;;;;;;;;22.35;59.62;101908.81;2211086;39;114901;-55
2021/07/15 06:55:42;;;;;;;;;;;;;;;22.34;59.19;101909.13;2211102;39;114164;-56
2021/07/15 06:57:14;;;;;;;;;;;;;;;22.31;59.20;101904.06;2208677;39;114890;-56
2021/07/15 06:58:46;;;;;;;;;;;;;;;22.31;59.13;101907.72;2211171;39;114994;-56
2021/07/15 07:00:18;;;;;;;;;;;;;;;22.30;59.28;101908.03;2210691;39;114836;-56
2021/07/15 07:01:50;;;;;;;;;;;;;;;22.30;58.82;101911.69;2210253;39;114825;-56
2021/07/15 07:03:23;;;;;;;;;;;;;;;22.27;58.21;101914.25;2210856;39;114347;-56
2021/07/15 07:04:58;;;;;;;;;;;;;;;22.25;57.99;101913.72;2212575;39;115522;-56
2021/07/15 07:06:30;;;;;;;;;;;;;;;22.22;58.44;101908.66;2210300;39;114429;-56
2021/07/15 07:08:02;;;;;;;;;;;;;;;22.21;58.69;101915.44;2214103;39;113948;-56
2021/07/15 07:09:34;;;;;;;;;;;;;;;22.22;58.69;101912.31;2211195;39;115900;-56
2021/07/15 07:11:06;;;;;;;;;;;;;;;22.23;58.87;101914.00;2210243;39;115363;-56
2021/07/15 07:12:38;;;;;;;;;;;;;;;22.22;58.63;101911.47;2210858;39;114895;-57
2021/07/15 07:14:10;;;;;;;;;;;;;;;22.23;58.43;101916.81;2208644;39;115856;-56
2021/07/15 07:15:42;;;;;;;;;;;;;;;22.22;58.50;101915.13;2207282;39;115476;-55
2021/07/15 07:17:14;;;;;;;;;;;;;;;22.22;58.75;101915.13;2210783;39;115697;-56
2021/07/15 07:18:46;;;;;;;;;;;;;;;22.23;58.53;101922.44;2211798;39;115470;-56
2021/07/15 07:20:27;;;;;;;;;;;;;;;22.20;58.04;101919.38;2205828;39;115889;-56
2021/07/15 07:21:59;;;;;;;;;;;;;;;22.18;58.19;101912.06;2209658;39;115526;-55
2021/07/15 07:23:31;;;;;;;;;;;;;;;22.19;58.25;101912.91;2208459;39;115708;-56
2021/07/15 07:25:04;;;;;;;;;;;;;;;22.19;58.91;101910.09;2205508;39;115696;-55
2021/07/15 07:26:36;;;;;;;;;;;;;;;22.20;58.68;101903.34;2210616;39;115500;-56
2021/07/15 07:28:08;;;;;;;;;;;;;;;22.21;58.73;101905.03;2207724;39;115416;-56
2021/07/15 07:29:40;;;;;;;;;;;;;;;22.18;58.38;101902.78;2206636;39;115715;-56
2021/07/15 07:31:12;;;;;;;;;;;;;;;22.13;58.44;101919.72;2210344;39;115494;-56
2021/07/15 07:32:44;;;;;;;;;;;;;;;22.10;58.63;101904.28;2216421;39;114970;-58
2021/07/15 07:34:17;;;;;;;;;;;;;;;22.09;58.67;101905.41;2209855;39;113917;-56
2021/07/15 07:35:49;;;;;;;;;;;;;;;22.09;58.59;101904.56;2208331;39;113938;-56
2021/07/15 07:37:21;;;;;;;;;;;;;;;22.09;58.65;101905.41;2210862;39;114084;-56
2021/07/15 07:38:52;;;;;;;;;;;;;;;22.08;58.41;101911.31;2210732;39;113816;-56
2021/07/15 07:40:24;;;;;;;;;;;;;;;22.06;58.57;101911.63;2210837;39;113794;-56
2021/07/15 07:41:57;;;;;;;;;;;;;;;22.08;58.53;101911.31;2209820;39;113781;-56
2021/07/15 07:43:29;;;;;;;;;;;;;;;22.06;58.72;101910.78;2210276;39;113634;-56
2021/07/15 07:45:01;;;;;;;;;;;;;;;22.04;58.76;101908.25;2203966;39;113941;-57
2021/07/15 07:46:33;;;;;;;;;;;;;;;22.02;58.76;101913.38;2205553;39;113947;-56
2021/07/15 07:48:05;;;;;;;;;;;;;;;21.97;58.68;101918.19;2210217;39;113736;-56
2021/07/15 07:49:37;;;;;;;;;;;;;;;21.96;58.73;101914.53;2210046;39;113756;-56
2021/07/15 07:51:09;;;;;;;;;;;;;;;21.93;58.85;101917.94;2210892;39;113966;-56